sensor_id;sensor_type;location;lat;lon;timestamp;P1;durP1;ratioP1;P2;durP2;ratioP2
16387;SDS011;8303;53.446;9.988;2023-07-29T04:43:27;884.47;;;816.20;;
16387;SDS011;8303;53.446;9.988;2023-07-29T04:45:54;910.10;;;839.72;;
16387;SDS011;8303;53.446;9.988;2023-07-29T04:48:21;919.85;;;848.05;;
16387;SDS011;8303;53.446;9.988;2023-07-29T04:50:48;901.03;;;831.97;;
16387;SDS011;8303;53.446;9.988;2023-07-29T04:53:15;923.60;;;850.85;;
16387;SDS011;8303;53.446;9.988;2023-07-29T04:55:42;939.60;;;864.58;;
16387;SDS011;8303;53.446;9.988;2023-07-29T04:58:08;910.47;;;840.63;;
16387;SDS011;8303;53.446;9.988;2023-07-29T05:00:37;889.97;;;821.85;;
16387;SDS011;8303;53.446;9.988;2023-07-29T05:03:04;894.05;;;823.97;;
16387;SDS011;8303;53.446;9.988;2023-07-29T05:05:31;876.50;;;808.33;;
16387;SDS011;8303;53.446;9.988;2023-07-29T05:07:58;925.70;;;853.90;;
16387;SDS011;8303;53.446;9.988;2023-07-29T05:10:25;894.50;;;826.55;;
16387;SDS011;8303;53.446;9.988;2023-07-29T05:12:52;916.92;;;846.60;;
16387;SDS011;8303;53.446;9.988;2023-07-29T05:15:19;905.78;;;834.97;;
16387;SDS011;8303;53.446;9.988;2023-07-29T05:17:47;917.00;;;845.67;;
16387;SDS011;8303;53.446;9.988;2023-07-29T05:20:14;908.92;;;838.90;;
16387;SDS011;8303;53.446;9.988;2023-07-29T05:22:40;920.72;;;848.67;;
16387;SDS011;8303;53.446;9.988;2023-07-29T05:25:07;917.30;;;846.90;;
16387;SDS011;8303;53.446;9.988;2023-07-29T05:27:34;902.35;;;833.67;;
16387;SDS011;8303;53.446;9.988;2023-07-29T05:30:01;910.88;;;840.22;;
16387;SDS011;8303;53.446;9.988;2023-07-29T05:32:29;933.80;;;861.95;;
16387;SDS011;8303;53.446;9.988;2023-07-29T05:34:57;932.58;;;859.75;;
16387;SDS011;8303;53.446;9.988;2023-07-29T05:37:24;931.95;;;859.13;;
16387;SDS011;8303;53.446;9.988;2023-07-29T05:39:51;941.47;;;867.95;;
16387;SDS011;8303;53.446;9.988;2023-07-29T05:42:17;927.05;;;853.47;;
16387;SDS011;8303;53.446;9.988;2023-07-29T05:44:44;939.22;;;865.90;;
16387;SDS011;8303;53.446;9.988;2023-07-29T05:47:11;931.83;;;857.08;;
16387;SDS011;8303;53.446;9.988;2023-07-29T05:49:38;917.40;;;845.40;;
16387;SDS011;8303;53.446;9.988;2023-07-29T05:52:06;931.22;;;856.42;;
16387;SDS011;8303;53.446;9.988;2023-07-29T05:54:34;921.20;;;848.33;;
16387;SDS011;8303;53.446;9.988;2023-07-29T05:57:01;852.55;;;788.05;;
16387;SDS011;8303;53.446;9.988;2023-07-29T05:59:28;827.42;;;764.75;;
16387;SDS011;8303;53.446;9.988;2023-07-29T06:01:54;833.10;;;770.22;;
16387;SDS011;8303;53.446;9.988;2023-07-29T06:04:22;834.20;;;771.05;;
16387;SDS011;8303;53.446;9.988;2023-07-29T06:06:49;822.88;;;760.55;;
16387;SDS011;8303;53.446;9.988;2023-07-29T06:09:17;813.25;;;750.50;;
16387;SDS011;8303;53.446;9.988;2023-07-29T06:11:43;834.75;;;771.38;;
16387;SDS011;8303;53.446;9.988;2023-07-29T06:14:10;835.13;;;771.20;;
16387;SDS011;8303;53.446;9.988;2023-07-29T06:16:37;859.30;;;793.65;;
16387;SDS011;8303;53.446;9.988;2023-07-29T06:19:04;793.53;;;735.72;;
16387;SDS011;8303;53.446;9.988;2023-07-29T06:21:33;761.40;;;707.28;;
16387;SDS011;8303;53.446;9.988;2023-07-29T06:24:00;819.00;;;758.47;;
16387;SDS011;8303;53.446;9.988;2023-07-29T06:26:29;830.50;;;768.95;;
16387;SDS011;8303;53.446;9.988;2023-07-29T06:28:56;828.28;;;766.78;;
16387;SDS011;8303;53.446;9.988;2023-07-29T06:31:23;814.25;;;754.35;;
16387;SDS011;8303;53.446;9.988;2023-07-29T06:33:50;810.15;;;750.53;;
16387;SDS011;8303;53.446;9.988;2023-07-29T06:36:17;806.67;;;748.10;;
16387;SDS011;8303;53.446;9.988;2023-07-29T06:38:44;795.35;;;738.45;;
16387;SDS011;8303;53.446;9.988;2023-07-29T06:41:10;784.50;;;728.35;;
16387;SDS011;8303;53.446;9.988;2023-07-29T06:43:39;762.58;;;708.05;;
16387;SDS011;8303;53.446;9.988;2023-07-29T06:46:05;765.60;;;711.25;;
16387;SDS011;8303;53.446;9.988;2023-07-29T06:48:32;766.50;;;711.70;;
16387;SDS011;8303;53.446;9.988;2023-07-29T06:50:59;774.75;;;719.90;;
16387;SDS011;8303;53.446;9.988;2023-07-29T06:53:27;726.33;;;676.05;;
16387;SDS011;8303;53.446;9.988;2023-07-29T06:55:54;691.95;;;644.90;;
16387;SDS011;8303;53.446;9.988;2023-07-29T06:58:21;676.45;;;630.65;;
16387;SDS011;8303;53.446;9.988;2023-07-29T07:00:49;681.72;;;635.17;;
16387;SDS011;8303;53.446;9.988;2023-07-29T07:03:16;719.80;;;670.20;;
16387;SDS011;8303;53.446;9.988;2023-07-29T07:05:43;758.17;;;704.72;;
16387;SDS011;8303;53.446;9.988;2023-07-29T07:08:10;720.63;;;670.42;;
16387;SDS011;8303;53.446;9.988;2023-07-29T07:10:37;738.13;;;686.72;;
16387;SDS011;8303;53.446;9.988;2023-07-29T07:13:04;774.95;;;720.45;;
16387;SDS011;8303;53.446;9.988;2023-07-29T07:15:30;776.05;;;721.63;;
16387;SDS011;8303;53.446;9.988;2023-07-29T07:17:59;810.63;;;752.50;;
16387;SDS011;8303;53.446;9.988;2023-07-29T07:20:26;780.15;;;724.42;;
16387;SDS011;8303;53.446;9.988;2023-07-29T07:22:53;786.85;;;730.22;;
16387;SDS011;8303;53.446;9.988;2023-07-29T07:25:20;782.25;;;725.92;;
16387;SDS011;8303;53.446;9.988;2023-07-29T07:27:47;744.28;;;691.97;;
16387;SDS011;8303;53.446;9.988;2023-07-29T07:30:14;739.00;;;687.70;;
16387;SDS011;8303;53.446;9.988;2023-07-29T07:32:41;730.10;;;679.42;;
16387;SDS011;8303;53.446;9.988;2023-07-29T07:35:09;735.17;;;684.28;;
16387;SDS011;8303;53.446;9.988;2023-07-29T07:37:36;749.75;;;696.88;;
16387;SDS011;8303;53.446;9.988;2023-07-29T07:40:03;750.50;;;697.08;;
16387;SDS011;8303;53.446;9.988;2023-07-29T07:42:31;719.50;;;669.70;;
16387;SDS011;8303;53.446;9.988;2023-07-29T07:44:57;746.33;;;693.47;;
16387;SDS011;8303;53.446;9.988;2023-07-29T07:47:24;750.63;;;697.63;;
16387;SDS011;8303;53.446;9.988;2023-07-29T07:49:51;709.78;;;660.63;;
16387;SDS011;8303;53.446;9.988;2023-07-29T07:52:19;699.88;;;651.78;;
16387;SDS011;8303;53.446;9.988;2023-07-29T07:54:51;709.58;;;660.85;;
16387;SDS011;8303;53.446;9.988;2023-07-29T07:57:18;699.92;;;652.33;;
16387;SDS011;8303;53.446;9.988;2023-07-29T07:59:46;702.83;;;654.25;;
16387;SDS011;8303;53.446;9.988;2023-07-29T08:02:13;694.58;;;647.83;;
16387;SDS011;8303;53.446;9.988;2023-07-29T08:04:39;707.60;;;658.78;;
16387;SDS011;8303;53.446;9.988;2023-07-29T08:07:06;705.55;;;656.95;;
16387;SDS011;8303;53.446;9.988;2023-07-29T08:09:34;678.45;;;632.25;;
16387;SDS011;8303;53.446;9.988;2023-07-29T08:12:01;706.53;;;658.03;;
16387;SDS011;8303;53.446;9.988;2023-07-29T08:14:29;718.42;;;668.67;;
16387;SDS011;8303;53.446;9.988;2023-07-29T08:16:55;722.80;;;672.53;;
16387;SDS011;8303;53.446;9.988;2023-07-29T08:19:22;724.60;;;673.63;;
16387;SDS011;8303;53.446;9.988;2023-07-29T08:21:49;698.63;;;650.45;;
16387;SDS011;8303;53.446;9.988;2023-07-29T08:24:16;773.85;;;720.05;;
16387;SDS011;8303;53.446;9.988;2023-07-29T08:26:44;763.38;;;710.33;;
16387;SDS011;8303;53.446;9.988;2023-07-29T08:29:11;704.53;;;655.45;;
16387;SDS011;8303;53.446;9.988;2023-07-29T08:31:38;707.88;;;660.03;;
16387;SDS011;8303;53.446;9.988;2023-07-29T08:34:05;687.30;;;640.28;;
16387;SDS011;8303;53.446;9.988;2023-07-29T08:36:32;681.38;;;635.97;;
16387;SDS011;8303;53.446;9.988;2023-07-29T08:38:59;667.72;;;622.88;;
16387;SDS011;8303;53.446;9.988;2023-07-29T08:41:27;705.78;;;657.30;;
16387;SDS011;8303;53.446;9.988;2023-07-29T08:44:01;665.80;;;621.10;;
16387;SDS011;8303;53.446;9.988;2023-07-29T08:46:32;698.55;;;650.53;;
16387;SDS011;8303;53.446;9.988;2023-07-29T08:48:59;672.92;;;627.83;;
16387;SDS011;8303;53.446;9.988;2023-07-29T08:51:27;664.17;;;619.67;;
16387;SDS011;8303;53.446;9.988;2023-07-29T08:53:55;645.72;;;602.40;;
16387;SDS011;8303;53.446;9.988;2023-07-29T08:56:22;718.30;;;668.63;;
16387;SDS011;8303;53.446;9.988;2023-07-29T08:58:49;641.47;;;598.35;;
16387;SDS011;8303;53.446;9.988;2023-07-29T09:01:18;604.75;;;564.90;;
16387;SDS011;8303;53.446;9.988;2023-07-29T09:03:45;656.13;;;611.65;;
16387;SDS011;8303;53.446;9.988;2023-07-29T09:06:11;695.42;;;648.25;;
16387;SDS011;8303;53.446;9.988;2023-07-29T09:08:40;649.50;;;606.10;;
16387;SDS011;8303;53.446;9.988;2023-07-29T09:11:07;577.30;;;539.67;;
16387;SDS011;8303;53.446;9.988;2023-07-29T09:13:34;642.42;;;600.30;;
16387;SDS011;8303;53.446;9.988;2023-07-29T09:16:01;586.90;;;548.78;;
16387;SDS011;8303;53.446;9.988;2023-07-29T09:18:31;588.47;;;550.42;;
16387;SDS011;8303;53.446;9.988;2023-07-29T09:20:59;540.20;;;506.67;;
16387;SDS011;8303;53.446;9.988;2023-07-29T09:23:26;613.55;;;573.10;;
16387;SDS011;8303;53.446;9.988;2023-07-29T09:26:00;616.67;;;576.65;;
16387;SDS011;8303;53.446;9.988;2023-07-29T09:28:27;554.30;;;519.97;;
16387;SDS011;8303;53.446;9.988;2023-07-29T09:30:59;603.05;;;563.20;;
16387;SDS011;8303;53.446;9.988;2023-07-29T09:33:27;600.55;;;561.45;;
16387;SDS011;8303;53.446;9.988;2023-07-29T09:35:55;591.22;;;553.17;;
16387;SDS011;8303;53.446;9.988;2023-07-29T09:38:26;564.97;;;528.60;;
16387;SDS011;8303;53.446;9.988;2023-07-29T09:40:54;569.80;;;533.55;;
16387;SDS011;8303;53.446;9.988;2023-07-29T09:43:25;604.22;;;565.58;;
16387;SDS011;8303;53.446;9.988;2023-07-29T09:45:52;588.30;;;550.80;;
16387;SDS011;8303;53.446;9.988;2023-07-29T09:48:19;591.38;;;553.58;;
16387;SDS011;8303;53.446;9.988;2023-07-29T09:50:48;621.10;;;580.63;;
16387;SDS011;8303;53.446;9.988;2023-07-29T09:53:17;570.40;;;534.65;;
16387;SDS011;8303;53.446;9.988;2023-07-29T09:55:45;563.28;;;528.00;;
16387;SDS011;8303;53.446;9.988;2023-07-29T09:58:13;560.25;;;525.47;;
16387;SDS011;8303;53.446;9.988;2023-07-29T10:00:40;464.00;;;436.20;;
16387;SDS011;8303;53.446;9.988;2023-07-29T10:03:08;494.02;;;464.77;;
16387;SDS011;8303;53.446;9.988;2023-07-29T10:05:35;396.23;;;374.00;;
16387;SDS011;8303;53.446;9.988;2023-07-29T10:08:04;405.65;;;382.55;;
16387;SDS011;8303;53.446;9.988;2023-07-29T10:10:32;333.13;;;315.17;;
16387;SDS011;8303;53.446;9.988;2023-07-29T10:12:59;347.70;;;328.63;;
16387;SDS011;8303;53.446;9.988;2023-07-29T10:15:27;354.80;;;335.35;;
16387;SDS011;8303;53.446;9.988;2023-07-29T10:17:55;326.77;;;309.48;;
16387;SDS011;8303;53.446;9.988;2023-07-29T10:20:23;420.13;;;396.42;;
16387;SDS011;8303;53.446;9.988;2023-07-29T10:22:49;396.70;;;374.33;;
16387;SDS011;8303;53.446;9.988;2023-07-29T10:25:18;383.38;;;361.98;;
16387;SDS011;8303;53.446;9.988;2023-07-29T10:27:52;450.10;;;424.52;;
16387;SDS011;8303;53.446;9.988;2023-07-29T10:30:28;468.20;;;441.42;;
16387;SDS011;8303;53.446;9.988;2023-07-29T10:32:55;501.23;;;472.40;;
16387;SDS011;8303;53.446;9.988;2023-07-29T10:35:25;503.73;;;474.48;;
16387;SDS011;8303;53.446;9.988;2023-07-29T10:37:53;512.10;;;482.08;;
16387;SDS011;8303;53.446;9.988;2023-07-29T10:40:21;521.50;;;490.65;;
16387;SDS011;8303;53.446;9.988;2023-07-29T10:43:01;511.25;;;481.48;;
16387;SDS011;8303;53.446;9.988;2023-07-29T10:45:36;547.92;;;515.40;;
16387;SDS011;8303;53.446;9.988;2023-07-29T10:48:05;529.10;;;497.48;;
16387;SDS011;8303;53.446;9.988;2023-07-29T10:50:33;531.67;;;499.65;;
16387;SDS011;8303;53.446;9.988;2023-07-29T10:53:00;556.92;;;523.03;;
16387;SDS011;8303;53.446;9.988;2023-07-29T10:55:28;547.92;;;515.47;;
16387;SDS011;8303;53.446;9.988;2023-07-29T10:58:07;566.65;;;532.58;;
16387;SDS011;8303;53.446;9.988;2023-07-29T11:00:42;513.38;;;483.27;;
16387;SDS011;8303;53.446;9.988;2023-07-29T11:03:09;564.70;;;530.67;;
16387;SDS011;8303;53.446;9.988;2023-07-29T11:05:46;582.22;;;547.33;;
16387;SDS011;8303;53.446;9.988;2023-07-29T11:08:18;540.97;;;509.10;;
16387;SDS011;8303;53.446;9.988;2023-07-29T11:10:57;550.17;;;517.35;;
16387;SDS011;8303;53.446;9.988;2023-07-29T11:13:30;549.97;;;517.35;;
16387;SDS011;8303;53.446;9.988;2023-07-29T11:15:58;582.50;;;547.03;;
16387;SDS011;8303;53.446;9.988;2023-07-29T11:18:26;574.53;;;538.85;;
16387;SDS011;8303;53.446;9.988;2023-07-29T11:20:54;534.83;;;502.98;;
16387;SDS011;8303;53.446;9.988;2023-07-29T11:23:26;538.17;;;506.60;;
16387;SDS011;8303;53.446;9.988;2023-07-29T11:25:55;474.27;;;447.15;;
16387;SDS011;8303;53.446;9.988;2023-07-29T11:28:22;510.67;;;480.77;;
16387;SDS011;8303;53.446;9.988;2023-07-29T11:30:50;521.75;;;491.45;;
16387;SDS011;8303;53.446;9.988;2023-07-29T11:33:17;541.53;;;510.02;;
16387;SDS011;8303;53.446;9.988;2023-07-29T11:35:46;535.40;;;503.20;;
16387;SDS011;8303;53.446;9.988;2023-07-29T11:38:14;558.53;;;524.70;;
16387;SDS011;8303;53.446;9.988;2023-07-29T11:40:42;519.47;;;488.77;;
16387;SDS011;8303;53.446;9.988;2023-07-29T11:43:09;494.45;;;465.48;;
16387;SDS011;8303;53.446;9.988;2023-07-29T11:45:43;488.00;;;459.50;;
16387;SDS011;8303;53.446;9.988;2023-07-29T11:48:12;417.95;;;394.67;;
16387;SDS011;8303;53.446;9.988;2023-07-29T11:50:39;521.55;;;490.60;;
16387;SDS011;8303;53.446;9.988;2023-07-29T11:53:06;472.80;;;445.35;;
16387;SDS011;8303;53.446;9.988;2023-07-29T11:55:33;520.10;;;489.73;;
16387;SDS011;8303;53.446;9.988;2023-07-29T11:58:00;554.17;;;520.60;;
16387;SDS011;8303;53.446;9.988;2023-07-29T12:00:28;570.85;;;536.15;;
16387;SDS011;8303;53.446;9.988;2023-07-29T12:02:55;615.72;;;577.75;;
16387;SDS011;8303;53.446;9.988;2023-07-29T12:05:23;600.20;;;563.35;;
16387;SDS011;8303;53.446;9.988;2023-07-29T12:07:51;501.67;;;472.02;;
16387;SDS011;8303;53.446;9.988;2023-07-29T12:10:18;496.80;;;467.33;;
16387;SDS011;8303;53.446;9.988;2023-07-29T12:12:47;528.40;;;497.08;;
16387;SDS011;8303;53.446;9.988;2023-07-29T12:15:22;375.50;;;355.15;;
16387;SDS011;8303;53.446;9.988;2023-07-29T12:17:52;460.00;;;433.80;;
16387;SDS011;8303;53.446;9.988;2023-07-29T12:20:20;334.33;;;316.33;;
16387;SDS011;8303;53.446;9.988;2023-07-29T12:22:52;445.63;;;420.65;;
16387;SDS011;8303;53.446;9.988;2023-07-29T12:25:19;238.25;;;226.02;;
16387;SDS011;8303;53.446;9.988;2023-07-29T12:27:47;357.98;;;338.73;;
16387;SDS011;8303;53.446;9.988;2023-07-29T12:30:14;195.10;;;185.10;;
16387;SDS011;8303;53.446;9.988;2023-07-29T12:32:44;71.10;;;67.45;;
16387;SDS011;8303;53.446;9.988;2023-07-29T12:35:12;47.53;;;44.90;;
16387;SDS011;8303;53.446;9.988;2023-07-29T12:37:40;38.75;;;36.67;;
16387;SDS011;8303;53.446;9.988;2023-07-29T12:40:19;59.22;;;56.08;;
16387;SDS011;8303;53.446;9.988;2023-07-29T12:42:48;40.90;;;38.50;;
16387;SDS011;8303;53.446;9.988;2023-07-29T12:45:15;44.45;;;42.00;;
16387;SDS011;8303;53.446;9.988;2023-07-29T12:47:42;23.10;;;21.60;;
16387;SDS011;8303;53.446;9.988;2023-07-29T12:50:09;23.67;;;22.27;;
16387;SDS011;8303;53.446;9.988;2023-07-29T12:52:36;19.77;;;18.67;;
16387;SDS011;8303;53.446;9.988;2023-07-29T12:55:04;23.48;;;22.15;;
16387;SDS011;8303;53.446;9.988;2023-07-29T12:57:34;17.23;;;16.20;;
16387;SDS011;8303;53.446;9.988;2023-07-29T13:00:02;50.78;;;47.10;;
16387;SDS011;8303;53.446;9.988;2023-07-29T13:02:29;19.85;;;18.75;;
16387;SDS011;8303;53.446;9.988;2023-07-29T13:04:57;32.15;;;30.40;;
16387;SDS011;8303;53.446;9.988;2023-07-29T13:07:23;36.95;;;34.95;;
16387;SDS011;8303;53.446;9.988;2023-07-29T13:09:50;82.75;;;78.50;;
16387;SDS011;8303;53.446;9.988;2023-07-29T13:12:17;41.78;;;39.47;;
16387;SDS011;8303;53.446;9.988;2023-07-29T13:14:45;63.53;;;60.22;;
16387;SDS011;8303;53.446;9.988;2023-07-29T13:17:12;50.53;;;47.70;;
16387;SDS011;8303;53.446;9.988;2023-07-29T13:19:39;40.83;;;38.58;;
16387;SDS011;8303;53.446;9.988;2023-07-29T13:22:06;30.95;;;29.23;;
16387;SDS011;8303;53.446;9.988;2023-07-29T13:24:33;74.20;;;70.28;;
16387;SDS011;8303;53.446;9.988;2023-07-29T13:26:59;31.55;;;29.77;;
16387;SDS011;8303;53.446;9.988;2023-07-29T13:29:26;38.38;;;36.20;;
16387;SDS011;8303;53.446;9.988;2023-07-29T13:31:54;48.47;;;45.70;;
16387;SDS011;8303;53.446;9.988;2023-07-29T13:34:21;61.33;;;57.83;;
16387;SDS011;8303;53.446;9.988;2023-07-29T13:36:48;64.18;;;60.72;;
16387;SDS011;8303;53.446;9.988;2023-07-29T13:39:15;63.92;;;60.53;;
16387;SDS011;8303;53.446;9.988;2023-07-29T13:41:42;79.65;;;75.55;;
16387;SDS011;8303;53.446;9.988;2023-07-29T13:44:09;48.80;;;46.10;;
16387;SDS011;8303;53.446;9.988;2023-07-29T13:46:36;37.25;;;35.13;;
16387;SDS011;8303;53.446;9.988;2023-07-29T13:49:04;39.28;;;37.10;;
16387;SDS011;8303;53.446;9.988;2023-07-29T13:51:31;42.28;;;39.58;;
16387;SDS011;8303;53.446;9.988;2023-07-29T13:53:57;71.03;;;67.13;;
16387;SDS011;8303;53.446;9.988;2023-07-29T13:56:24;72.97;;;69.15;;
16387;SDS011;8303;53.446;9.988;2023-07-29T13:58:51;30.80;;;29.17;;
16387;SDS011;8303;53.446;9.988;2023-07-29T14:01:18;66.68;;;63.13;;
16387;SDS011;8303;53.446;9.988;2023-07-29T14:03:45;70.15;;;66.45;;
16387;SDS011;8303;53.446;9.988;2023-07-29T14:06:13;90.32;;;85.63;;
16387;SDS011;8303;53.446;9.988;2023-07-29T14:08:40;50.63;;;47.95;;
16387;SDS011;8303;53.446;9.988;2023-07-29T14:11:07;24.77;;;23.33;;
16387;SDS011;8303;53.446;9.988;2023-07-29T14:13:34;34.83;;;32.85;;
16387;SDS011;8303;53.446;9.988;2023-07-29T14:16:01;26.13;;;24.65;;
16387;SDS011;8303;53.446;9.988;2023-07-29T14:18:28;69.15;;;65.00;;
16387;SDS011;8303;53.446;9.988;2023-07-29T14:20:56;18.70;;;17.63;;
16387;SDS011;8303;53.446;9.988;2023-07-29T14:23:25;44.80;;;42.38;;
16387;SDS011;8303;53.446;9.988;2023-07-29T14:25:52;50.35;;;47.63;;
16387;SDS011;8303;53.446;9.988;2023-07-29T14:28:19;73.97;;;69.75;;
16387;SDS011;8303;53.446;9.988;2023-07-29T14:30:46;27.98;;;26.40;;
16387;SDS011;8303;53.446;9.988;2023-07-29T14:33:13;27.98;;;26.48;;
16387;SDS011;8303;53.446;9.988;2023-07-29T14:35:39;81.30;;;77.13;;
16387;SDS011;8303;53.446;9.988;2023-07-29T14:38:06;77.75;;;73.75;;
16387;SDS011;8303;53.446;9.988;2023-07-29T14:40:34;84.88;;;80.50;;
16387;SDS011;8303;53.446;9.988;2023-07-29T14:43:01;80.28;;;76.03;;
16387;SDS011;8303;53.446;9.988;2023-07-29T14:45:28;77.32;;;73.30;;
16387;SDS011;8303;53.446;9.988;2023-07-29T14:47:55;74.38;;;70.50;;
16387;SDS011;8303;53.446;9.988;2023-07-29T14:50:22;54.50;;;51.60;;
16387;SDS011;8303;53.446;9.988;2023-07-29T14:52:49;75.47;;;71.40;;
16387;SDS011;8303;53.446;9.988;2023-07-29T14:55:16;80.72;;;76.55;;
16387;SDS011;8303;53.446;9.988;2023-07-29T14:57:45;81.32;;;77.15;;
16387;SDS011;8303;53.446;9.988;2023-07-29T15:00:12;68.82;;;65.22;;
16387;SDS011;8303;53.446;9.988;2023-07-29T15:02:40;82.07;;;77.75;;
16387;SDS011;8303;53.446;9.988;2023-07-29T15:05:07;83.10;;;78.40;;
16387;SDS011;8303;53.446;9.988;2023-07-29T15:07:34;50.58;;;47.72;;
16387;SDS011;8303;53.446;9.988;2023-07-29T15:10:01;68.75;;;65.10;;
16387;SDS011;8303;53.446;9.988;2023-07-29T15:12:28;85.80;;;81.32;;
16387;SDS011;8303;53.446;9.988;2023-07-29T15:14:57;77.40;;;73.28;;
16387;SDS011;8303;53.446;9.988;2023-07-29T15:17:23;71.80;;;67.95;;
16387;SDS011;8303;53.446;9.988;2023-07-29T15:19:50;76.05;;;72.05;;
16387;SDS011;8303;53.446;9.988;2023-07-29T15:22:17;71.07;;;67.22;;
16387;SDS011;8303;53.446;9.988;2023-07-29T15:24:45;70.38;;;66.55;;
16387;SDS011;8303;53.446;9.988;2023-07-29T15:27:11;71.28;;;67.50;;
16387;SDS011;8303;53.446;9.988;2023-07-29T15:29:38;68.47;;;64.88;;
16387;SDS011;8303;53.446;9.988;2023-07-29T15:32:07;76.53;;;72.53;;
16387;SDS011;8303;53.446;9.988;2023-07-29T15:34:34;60.92;;;57.10;;
16387;SDS011;8303;53.446;9.988;2023-07-29T15:37:01;24.73;;;23.35;;
16387;SDS011;8303;53.446;9.988;2023-07-29T15:39:28;25.13;;;23.52;;
16387;SDS011;8303;53.446;9.988;2023-07-29T15:41:55;42.40;;;39.92;;
16387;SDS011;8303;53.446;9.988;2023-07-29T15:44:22;62.58;;;59.28;;
16387;SDS011;8303;53.446;9.988;2023-07-29T15:46:49;85.47;;;80.95;;
16387;SDS011;8303;53.446;9.988;2023-07-29T15:49:19;73.05;;;69.22;;
16387;SDS011;8303;53.446;9.988;2023-07-29T15:51:46;66.25;;;62.72;;
16387;SDS011;8303;53.446;9.988;2023-07-29T15:54:13;43.17;;;40.75;;
16387;SDS011;8303;53.446;9.988;2023-07-29T15:56:41;23.95;;;22.48;;
16387;SDS011;8303;53.446;9.988;2023-07-29T15:59:08;20.38;;;19.08;;
16387;SDS011;8303;53.446;9.988;2023-07-29T16:01:36;46.45;;;43.80;;
16387;SDS011;8303;53.446;9.988;2023-07-29T16:04:03;65.30;;;61.88;;
16387;SDS011;8303;53.446;9.988;2023-07-29T16:06:31;60.47;;;57.28;;
16387;SDS011;8303;53.446;9.988;2023-07-29T16:08:58;39.72;;;37.38;;
16387;SDS011;8303;53.446;9.988;2023-07-29T16:11:31;42.88;;;40.47;;
16387;SDS011;8303;53.446;9.988;2023-07-29T16:13:58;38.03;;;35.88;;
16387;SDS011;8303;53.446;9.988;2023-07-29T16:16:25;21.35;;;20.15;;
16387;SDS011;8303;53.446;9.988;2023-07-29T16:18:52;73.22;;;69.28;;
16387;SDS011;8303;53.446;9.988;2023-07-29T16:21:19;59.90;;;56.40;;
16387;SDS011;8303;53.446;9.988;2023-07-29T16:23:47;616.58;;;575.67;;
16387;SDS011;8303;53.446;9.988;2023-07-29T16:26:17;786.35;;;727.20;;
16387;SDS011;8303;53.446;9.988;2023-07-29T16:28:44;740.97;;;684.40;;
16387;SDS011;8303;53.446;9.988;2023-07-29T16:31:11;934.03;;;858.08;;
16387;SDS011;8303;53.446;9.988;2023-07-29T16:33:38;858.08;;;786.50;;
16387;SDS011;8303;53.446;9.988;2023-07-29T16:36:05;423.45;;;395.60;;
16387;SDS011;8303;53.446;9.988;2023-07-29T16:38:32;195.25;;;183.13;;
16387;SDS011;8303;53.446;9.988;2023-07-29T16:41:00;220.75;;;208.57;;
16387;SDS011;8303;53.446;9.988;2023-07-29T16:43:27;249.80;;;236.20;;
16387;SDS011;8303;53.446;9.988;2023-07-29T16:45:54;228.63;;;216.50;;
16387;SDS011;8303;53.446;9.988;2023-07-29T16:48:21;182.02;;;172.30;;
16387;SDS011;8303;53.446;9.988;2023-07-29T16:50:48;194.52;;;183.10;;
16387;SDS011;8303;53.446;9.988;2023-07-29T16:53:15;365.33;;;341.92;;
16387;SDS011;8303;53.446;9.988;2023-07-29T16:55:42;471.80;;;442.30;;
16387;SDS011;8303;53.446;9.988;2023-07-29T16:58:10;565.47;;;528.97;;
16387;SDS011;8303;53.446;9.988;2023-07-29T17:00:37;580.50;;;542.83;;
16387;SDS011;8303;53.446;9.988;2023-07-29T17:03:04;637.53;;;595.25;;
16387;SDS011;8303;53.446;9.988;2023-07-29T17:05:31;546.75;;;511.23;;
16387;SDS011;8303;53.446;9.988;2023-07-29T17:07:58;613.10;;;572.30;;
16387;SDS011;8303;53.446;9.988;2023-07-29T17:10:25;614.45;;;574.60;;
16387;SDS011;8303;53.446;9.988;2023-07-29T17:12:52;629.33;;;586.55;;
16387;SDS011;8303;53.446;9.988;2023-07-29T17:15:20;652.17;;;608.40;;
16387;SDS011;8303;53.446;9.988;2023-07-29T17:17:47;560.60;;;523.97;;
16387;SDS011;8303;53.446;9.988;2023-07-29T17:20:14;573.42;;;536.53;;
16387;SDS011;8303;53.446;9.988;2023-07-29T17:22:43;622.53;;;581.30;;
16387;SDS011;8303;53.446;9.988;2023-07-29T17:25:10;528.38;;;494.67;;
16387;SDS011;8303;53.446;9.988;2023-07-29T17:27:37;505.00;;;473.75;;
16387;SDS011;8303;53.446;9.988;2023-07-29T17:30:04;507.20;;;475.15;;
16387;SDS011;8303;53.446;9.988;2023-07-29T17:32:33;564.88;;;528.67;;
16387;SDS011;8303;53.446;9.988;2023-07-29T17:35:00;599.00;;;558.75;;
16387;SDS011;8303;53.446;9.988;2023-07-29T17:37:27;631.10;;;589.67;;
16387;SDS011;8303;53.446;9.988;2023-07-29T17:39:54;608.65;;;568.03;;
16387;SDS011;8303;53.446;9.988;2023-07-29T17:42:21;608.80;;;569.03;;
16387;SDS011;8303;53.446;9.988;2023-07-29T17:44:48;634.65;;;591.75;;
16387;SDS011;8303;53.446;9.988;2023-07-29T17:47:15;649.50;;;604.85;;
16387;SDS011;8303;53.446;9.988;2023-07-29T17:49:44;662.80;;;617.33;;
16387;SDS011;8303;53.446;9.988;2023-07-29T17:52:11;702.63;;;653.78;;
16387;SDS011;8303;53.446;9.988;2023-07-29T17:54:38;697.85;;;648.72;;
16387;SDS011;8303;53.446;9.988;2023-07-29T17:57:06;708.47;;;658.72;;
16387;SDS011;8303;53.446;9.988;2023-07-29T17:59:33;736.65;;;684.67;;
16387;SDS011;8303;53.446;9.988;2023-07-29T18:02:00;734.22;;;682.38;;
16387;SDS011;8303;53.446;9.988;2023-07-29T18:04:27;755.35;;;700.33;;
16387;SDS011;8303;53.446;9.988;2023-07-29T18:06:55;780.13;;;724.28;;
16387;SDS011;8303;53.446;9.988;2023-07-29T18:09:22;774.80;;;719.70;;
16387;SDS011;8303;53.446;9.988;2023-07-29T18:11:48;809.67;;;751.10;;
16387;SDS011;8303;53.446;9.988;2023-07-29T18:14:15;821.08;;;759.92;;
16387;SDS011;8303;53.446;9.988;2023-07-29T18:16:42;832.40;;;770.63;;
16387;SDS011;8303;53.446;9.988;2023-07-29T18:19:09;841.67;;;779.58;;
16387;SDS011;8303;53.446;9.988;2023-07-29T18:21:36;851.40;;;787.25;;
16387;SDS011;8303;53.446;9.988;2023-07-29T18:24:05;846.78;;;782.80;;
16387;SDS011;8303;53.446;9.988;2023-07-29T18:26:32;845.20;;;782.35;;
16387;SDS011;8303;53.446;9.988;2023-07-29T18:28:58;840.88;;;779.20;;
16387;SDS011;8303;53.446;9.988;2023-07-29T18:31:25;852.22;;;788.15;;
16387;SDS011;8303;53.446;9.988;2023-07-29T18:33:52;867.75;;;803.78;;
16387;SDS011;8303;53.446;9.988;2023-07-29T18:36:19;872.83;;;807.40;;
16387;SDS011;8303;53.446;9.988;2023-07-29T18:38:46;861.13;;;797.00;;
16387;SDS011;8303;53.446;9.988;2023-07-29T18:41:14;892.38;;;825.63;;
16387;SDS011;8303;53.446;9.988;2023-07-29T18:43:41;913.05;;;843.55;;
16387;SDS011;8303;53.446;9.988;2023-07-29T18:46:08;923.60;;;850.45;;
16387;SDS011;8303;53.446;9.988;2023-07-29T18:48:35;938.35;;;865.60;;
16387;SDS011;8303;53.446;9.988;2023-07-29T18:51:01;877.92;;;809.28;;
16387;SDS011;8303;53.446;9.988;2023-07-29T18:53:31;781.72;;;725.97;;
16387;SDS011;8303;53.446;9.988;2023-07-29T18:55:58;633.75;;;592.00;;
16387;SDS011;8303;53.446;9.988;2023-07-29T18:58:26;643.58;;;601.55;;
16387;SDS011;8303;53.446;9.988;2023-07-29T19:00:53;650.50;;;607.65;;